sensor_id;sensor_type;location;lat;lon;timestamp;temperature;humidity
71396;DHT22;59888;55.814;37.132;2022-09-09T00:06:43;8.13;62.73
71396;DHT22;59888;55.814;37.132;2022-09-09T00:09:17;8.07;62.75
71396;DHT22;59888;55.814;37.132;2022-09-09T00:11:45;8.03;62.79
71396;DHT22;59888;55.814;37.132;2022-09-09T00:14:15;8.00;62.99
71396;DHT22;59888;55.814;37.132;2022-09-09T00:16:45;8.00;63.28
71396;DHT22;59888;55.814;37.132;2022-09-09T00:19:22;7.94;63.24
71396;DHT22;59888;55.814;37.132;2022-09-09T00:26:48;7.89;63.49
71396;DHT22;59888;55.814;37.132;2022-09-09T00:31:42;7.89;63.25
71396;DHT22;59888;55.814;37.132;2022-09-09T00:34:11;7.91;63.37
71396;DHT22;59888;55.814;37.132;2022-09-09T00:36:38;7.90;63.33
71396;DHT22;59888;55.814;37.132;2022-09-09T00:39:04;7.93;63.69
71396;DHT22;59888;55.814;37.132;2022-09-09T00:41:45;7.92;63.30
71396;DHT22;59888;55.814;37.132;2022-09-09T00:49:23;7.86;63.45
71396;DHT22;59888;55.814;37.132;2022-09-09T00:57:34;7.86;63.85
71396;DHT22;59888;55.814;37.132;2022-09-09T01:02:33;7.92;63.66
71396;DHT22;59888;55.814;37.132;2022-09-09T01:05:07;7.94;63.62
71396;DHT22;59888;55.814;37.132;2022-09-09T01:07:36;7.94;63.47
71396;DHT22;59888;55.814;37.132;2022-09-09T01:10:03;7.97;63.40
71396;DHT22;59888;55.814;37.132;2022-09-09T01:12:34;7.96;63.52
71396;DHT22;59888;55.814;37.132;2022-09-09T01:15:03;7.94;63.45
71396;DHT22;59888;55.814;37.132;2022-09-09T01:17:31;7.89;63.52
71396;DHT22;59888;55.814;37.132;2022-09-09T01:22:45;7.84;63.49
71396;DHT22;59888;55.814;37.132;2022-09-09T01:28:02;7.83;63.37
71396;DHT22;59888;55.814;37.132;2022-09-09T01:30:30;7.82;63.44
71396;DHT22;59888;55.814;37.132;2022-09-09T01:32:58;7.82;63.38
71396;DHT22;59888;55.814;37.132;2022-09-09T01:37:51;7.90;63.31
71396;DHT22;59888;55.814;37.132;2022-09-09T01:40:18;7.97;63.09
71396;DHT22;59888;55.814;37.132;2022-09-09T01:42:45;8.00;62.97
71396;DHT22;59888;55.814;37.132;2022-09-09T01:45:11;7.98;62.97
71396;DHT22;59888;55.814;37.132;2022-09-09T01:47:36;7.96;63.00
71396;DHT22;59888;55.814;37.132;2022-09-09T01:50:22;7.94;62.91
71396;DHT22;59888;55.814;37.132;2022-09-09T01:52:50;7.94;63.02
71396;DHT22;59888;55.814;37.132;2022-09-09T01:55:30;7.94;63.04
71396;DHT22;59888;55.814;37.132;2022-09-09T02:00:51;8.01;63.02
71396;DHT22;59888;55.814;37.132;2022-09-09T02:03:23;8.06;62.92
71396;DHT22;59888;55.814;37.132;2022-09-09T02:06:44;8.06;62.77
71396;DHT22;59888;55.814;37.132;2022-09-09T02:08:50;8.07;62.95
71396;DHT22;59888;55.814;37.132;2022-09-09T02:11:24;8.06;62.88
71396;DHT22;59888;55.814;37.132;2022-09-09T02:14:09;8.04;62.91
71396;DHT22;59888;55.814;37.132;2022-09-09T02:16:55;8.01;62.88
71396;DHT22;59888;55.814;37.132;2022-09-09T02:19:30;7.97;62.91
71396;DHT22;59888;55.814;37.132;2022-09-09T02:22:17;7.88;62.98
71396;DHT22;59888;55.814;37.132;2022-09-09T02:24:44;7.82;63.18
71396;DHT22;59888;55.814;37.132;2022-09-09T02:27:16;7.77;63.46
71396;DHT22;59888;55.814;37.132;2022-09-09T02:29:44;7.71;63.25
71396;DHT22;59888;55.814;37.132;2022-09-09T02:32:13;7.68;63.53
71396;DHT22;59888;55.814;37.132;2022-09-09T02:34:42;7.60;63.75
71396;DHT22;59888;55.814;37.132;2022-09-09T02:37:08;7.56;63.65
71396;DHT22;59888;55.814;37.132;2022-09-09T02:39:35;7.50;63.76
71396;DHT22;59888;55.814;37.132;2022-09-09T02:42:03;7.46;63.69
71396;DHT22;59888;55.814;37.132;2022-09-09T02:44:31;7.42;63.79
71396;DHT22;59888;55.814;37.132;2022-09-09T02:52:32;7.19;64.01
71396;DHT22;59888;55.814;37.132;2022-09-09T02:55:08;7.22;63.95
71396;DHT22;59888;55.814;37.132;2022-09-09T02:57:36;7.19;63.96
71396;DHT22;59888;55.814;37.132;2022-09-09T03:00:04;7.20;63.94
71396;DHT22;59888;55.814;37.132;2022-09-09T03:02:32;7.17;63.91
71396;DHT22;59888;55.814;37.132;2022-09-09T03:05:03;7.20;63.80
71396;DHT22;59888;55.814;37.132;2022-09-09T03:07:30;7.18;64.00
71396;DHT22;59888;55.814;37.132;2022-09-09T03:09:56;7.17;63.86
71396;DHT22;59888;55.814;37.132;2022-09-09T03:12:26;7.16;63.99
71396;DHT22;59888;55.814;37.132;2022-09-09T03:14:52;7.07;63.88
71396;DHT22;59888;55.814;37.132;2022-09-09T03:17:18;7.05;63.87
71396;DHT22;59888;55.814;37.132;2022-09-09T03:19:50;7.08;63.82
71396;DHT22;59888;55.814;37.132;2022-09-09T03:22:18;7.05;63.89
71396;DHT22;59888;55.814;37.132;2022-09-09T03:24:44;6.96;64.21
71396;DHT22;59888;55.814;37.132;2022-09-09T03:27:12;6.91;64.13
71396;DHT22;59888;55.814;37.132;2022-09-09T03:29:39;6.90;64.11
71396;DHT22;59888;55.814;37.132;2022-09-09T03:32:08;6.88;64.21
71396;DHT22;59888;55.814;37.132;2022-09-09T03:34:36;6.90;64.27
71396;DHT22;59888;55.814;37.132;2022-09-09T03:37:08;6.94;64.38
71396;DHT22;59888;55.814;37.132;2022-09-09T03:39:35;6.94;64.50
71396;DHT22;59888;55.814;37.132;2022-09-09T03:42:00;6.95;64.60
71396;DHT22;59888;55.814;37.132;2022-09-09T03:44:30;6.97;64.67
71396;DHT22;59888;55.814;37.132;2022-09-09T03:46:56;7.00;64.55
71396;DHT22;59888;55.814;37.132;2022-09-09T03:49:22;7.05;64.56
71396;DHT22;59888;55.814;37.132;2022-09-09T03:51:49;7.13;64.41
71396;DHT22;59888;55.814;37.132;2022-09-09T03:54:14;7.18;64.44
71396;DHT22;59888;55.814;37.132;2022-09-09T03:56:40;7.28;64.32
71396;DHT22;59888;55.814;37.132;2022-09-09T03:59:09;7.38;64.22
71396;DHT22;59888;55.814;37.132;2022-09-09T04:01:35;7.45;64.08
71396;DHT22;59888;55.814;37.132;2022-09-09T04:04:01;7.52;64.09
71396;DHT22;59888;55.814;37.132;2022-09-09T04:06:27;7.63;63.88
71396;DHT22;59888;55.814;37.132;2022-09-09T04:08:53;7.76;63.63
71396;DHT22;59888;55.814;37.132;2022-09-09T04:11:20;7.86;63.60
71396;DHT22;59888;55.814;37.132;2022-09-09T04:13:48;7.94;63.37
71396;DHT22;59888;55.814;37.132;2022-09-09T04:16:17;8.09;63.15
71396;DHT22;59888;55.814;37.132;2022-09-09T04:18:43;8.15;62.99
71396;DHT22;59888;55.814;37.132;2022-09-09T04:21:09;8.19;62.95
71396;DHT22;59888;55.814;37.132;2022-09-09T04:23:35;8.26;62.96
71396;DHT22;59888;55.814;37.132;2022-09-09T04:26:02;8.33;62.80
71396;DHT22;59888;55.814;37.132;2022-09-09T04:28:31;8.41;62.72
71396;DHT22;59888;55.814;37.132;2022-09-09T04:31:08;8.48;62.53
71396;DHT22;59888;55.814;37.132;2022-09-09T04:33:35;8.59;62.40
71396;DHT22;59888;55.814;37.132;2022-09-09T04:36:01;8.71;62.07
71396;DHT22;59888;55.814;37.132;2022-09-09T04:38:28;8.77;61.81
71396;DHT22;59888;55.814;37.132;2022-09-09T04:40:54;8.87;61.50
71396;DHT22;59888;55.814;37.132;2022-09-09T04:43:21;8.95;61.21
71396;DHT22;59888;55.814;37.132;2022-09-09T04:45:49;9.02;61.02
71396;DHT22;59888;55.814;37.132;2022-09-09T04:48:15;9.12;60.87
71396;DHT22;59888;55.814;37.132;2022-09-09T04:50:41;9.21;60.65
71396;DHT22;59888;55.814;37.132;2022-09-09T04:53:09;9.33;60.56
71396;DHT22;59888;55.814;37.132;2022-09-09T04:55:37;9.47;60.14
71396;DHT22;59888;55.814;37.132;2022-09-09T04:58:07;9.54;59.64
71396;DHT22;59888;55.814;37.132;2022-09-09T05:00:34;9.61;59.57
71396;DHT22;59888;55.814;37.132;2022-09-09T05:03:03;9.70;59.42
71396;DHT22;59888;55.814;37.132;2022-09-09T05:05:30;9.80;58.94
71396;DHT22;59888;55.814;37.132;2022-09-09T05:08:00;9.92;59.08
71396;DHT22;59888;55.814;37.132;2022-09-09T05:10:26;10.06;58.08
71396;DHT22;59888;55.814;37.132;2022-09-09T05:12:52;10.14;58.16
71396;DHT22;59888;55.814;37.132;2022-09-09T05:15:19;10.18;57.59
71396;DHT22;59888;55.814;37.132;2022-09-09T05:17:46;10.26;57.53
71396;DHT22;59888;55.814;37.132;2022-09-09T05:20:13;10.34;57.56
71396;DHT22;59888;55.814;37.132;2022-09-09T05:22:39;10.41;57.38
71396;DHT22;59888;55.814;37.132;2022-09-09T05:25:06;10.54;57.25
71396;DHT22;59888;55.814;37.132;2022-09-09T05:27:33;10.66;56.97
71396;DHT22;59888;55.814;37.132;2022-09-09T05:29:59;10.81;56.87
71396;DHT22;59888;55.814;37.132;2022-09-09T05:32:25;10.90;56.27
71396;DHT22;59888;55.814;37.132;2022-09-09T05:34:51;11.01;56.41
71396;DHT22;59888;55.814;37.132;2022-09-09T05:37:18;11.12;56.22
71396;DHT22;59888;55.814;37.132;2022-09-09T05:39:44;11.27;55.98
71396;DHT22;59888;55.814;37.132;2022-09-09T05:42:10;11.38;55.66
71396;DHT22;59888;55.814;37.132;2022-09-09T05:44:36;11.52;55.73
71396;DHT22;59888;55.814;37.132;2022-09-09T05:47:02;11.67;55.20
71396;DHT22;59888;55.814;37.132;2022-09-09T05:49:28;11.76;54.80
71396;DHT22;59888;55.814;37.132;2022-09-09T05:51:54;11.91;54.94
71396;DHT22;59888;55.814;37.132;2022-09-09T05:54:20;12.00;54.17
71396;DHT22;59888;55.814;37.132;2022-09-09T05:56:49;12.10;53.96
71396;DHT22;59888;55.814;37.132;2022-09-09T05:59:18;12.20;53.72
71396;DHT22;59888;55.814;37.132;2022-09-09T06:01:44;12.22;53.10
71396;DHT22;59888;55.814;37.132;2022-09-09T06:04:18;12.23;53.35
71396;DHT22;59888;55.814;37.132;2022-09-09T06:06:48;12.30;52.80
71396;DHT22;59888;55.814;37.132;2022-09-09T06:09:16;12.41;52.81
71396;DHT22;59888;55.814;37.132;2022-09-09T06:11:43;12.48;51.36
71396;DHT22;59888;55.814;37.132;2022-09-09T06:14:10;12.51;52.15
71396;DHT22;59888;55.814;37.132;2022-09-09T06:16:37;12.53;51.10
71396;DHT22;59888;55.814;37.132;2022-09-09T06:19:05;12.61;51.99
71396;DHT22;59888;55.814;37.132;2022-09-09T06:21:32;12.70;50.95
71396;DHT22;59888;55.814;37.132;2022-09-09T06:24:00;12.76;51.29
71396;DHT22;59888;55.814;37.132;2022-09-09T06:26:27;12.84;50.74
71396;DHT22;59888;55.814;37.132;2022-09-09T06:28:54;12.92;51.03
71396;DHT22;59888;55.814;37.132;2022-09-09T06:31:21;13.08;50.62
71396;DHT22;59888;55.814;37.132;2022-09-09T06:33:48;13.18;49.96
71396;DHT22;59888;55.814;37.132;2022-09-09T06:36:17;13.22;50.43
71396;DHT22;59888;55.814;37.132;2022-09-09T06:38:44;13.27;50.41
71396;DHT22;59888;55.814;37.132;2022-09-09T06:41:12;13.34;49.41
71396;DHT22;59888;55.814;37.132;2022-09-09T06:43:39;13.47;49.21
71396;DHT22;59888;55.814;37.132;2022-09-09T06:46:12;13.46;48.71
71396;DHT22;59888;55.814;37.132;2022-09-09T06:48:38;13.54;49.07
71396;DHT22;59888;55.814;37.132;2022-09-09T06:51:10;13.51;48.74
71396;DHT22;59888;55.814;37.132;2022-09-09T06:53:38;13.48;48.37
71396;DHT22;59888;55.814;37.132;2022-09-09T06:58:39;13.70;47.31
71396;DHT22;59888;55.814;37.132;2022-09-09T07:01:10;13.77;47.34
71396;DHT22;59888;55.814;37.132;2022-09-09T07:03:37;13.86;47.98
71396;DHT22;59888;55.814;37.132;2022-09-09T07:06:04;13.88;46.65
71396;DHT22;59888;55.814;37.132;2022-09-09T07:08:30;13.91;47.59
71396;DHT22;59888;55.814;37.132;2022-09-09T07:11:03;13.91;45.96
71396;DHT22;59888;55.814;37.132;2022-09-09T07:13:31;13.84;47.43
71396;DHT22;59888;55.814;37.132;2022-09-09T07:16:31;13.89;47.89
71396;DHT22;59888;55.814;37.132;2022-09-09T07:18:50;14.00;46.89
71396;DHT22;59888;55.814;37.132;2022-09-09T07:21:16;14.13;46.23
71396;DHT22;59888;55.814;37.132;2022-09-09T07:23:42;14.25;44.53
71396;DHT22;59888;55.814;37.132;2022-09-09T07:26:13;14.29;46.67
71396;DHT22;59888;55.814;37.132;2022-09-09T07:28:39;14.41;46.69
71396;DHT22;59888;55.814;37.132;2022-09-09T07:31:06;14.37;45.77
71396;DHT22;59888;55.814;37.132;2022-09-09T07:33:34;14.40;46.66
71396;DHT22;59888;55.814;37.132;2022-09-09T07:36:05;14.52;45.89
71396;DHT22;59888;55.814;37.132;2022-09-09T07:38:32;14.39;46.39
71396;DHT22;59888;55.814;37.132;2022-09-09T07:41:08;14.20;45.51
71396;DHT22;59888;55.814;37.132;2022-09-09T07:43:38;14.12;45.29
71396;DHT22;59888;55.814;37.132;2022-09-09T07:46:05;14.08;45.73
71396;DHT22;59888;55.814;37.132;2022-09-09T07:48:31;13.96;44.70
71396;DHT22;59888;55.814;37.132;2022-09-09T07:51:11;13.94;45.51
71396;DHT22;59888;55.814;37.132;2022-09-09T07:53:38;13.95;45.96
71396;DHT22;59888;55.814;37.132;2022-09-09T07:56:05;14.03;45.97
71396;DHT22;59888;55.814;37.132;2022-09-09T07:58:31;14.05;46.14
71396;DHT22;59888;55.814;37.132;2022-09-09T08:00:57;14.04;45.35
71396;DHT22;59888;55.814;37.132;2022-09-09T08:03:23;13.93;46.19
71396;DHT22;59888;55.814;37.132;2022-09-09T08:05:49;13.85;46.19
71396;DHT22;59888;55.814;37.132;2022-09-09T08:08:15;13.75;45.54
71396;DHT22;59888;55.814;37.132;2022-09-09T08:10:42;13.64;45.00
71396;DHT22;59888;55.814;37.132;2022-09-09T08:13:09;13.55;46.03
71396;DHT22;59888;55.814;37.132;2022-09-09T08:15:34;13.59;46.37
71396;DHT22;59888;55.814;37.132;2022-09-09T08:18:00;13.80;45.96
71396;DHT22;59888;55.814;37.132;2022-09-09T08:20:28;14.11;45.91
71396;DHT22;59888;55.814;37.132;2022-09-09T08:22:55;14.36;43.99
71396;DHT22;59888;55.814;37.132;2022-09-09T08:25:20;14.44;45.02
71396;DHT22;59888;55.814;37.132;2022-09-09T08:27:46;14.40;44.26
71396;DHT22;59888;55.814;37.132;2022-09-09T08:30:12;14.44;44.51
71396;DHT22;59888;55.814;37.132;2022-09-09T08:32:38;14.45;43.80
71396;DHT22;59888;55.814;37.132;2022-09-09T08:35:04;14.43;43.55
71396;DHT22;59888;55.814;37.132;2022-09-09T08:37:30;14.48;44.52
71396;DHT22;59888;55.814;37.132;2022-09-09T08:39:57;14.53;44.13
71396;DHT22;59888;55.814;37.132;2022-09-09T08:45:12;14.63;43.11
71396;DHT22;59888;55.814;37.132;2022-09-09T18:21:26;10.52;46.80
71396;DHT22;59888;55.814;37.132;2022-09-09T18:23:53;10.50;46.89
71396;DHT22;59888;55.814;37.132;2022-09-09T18:26:24;10.42;47.50
71396;DHT22;59888;55.814;37.132;2022-09-09T18:28:56;10.39;47.70
71396;DHT22;59888;55.814;37.132;2022-09-09T18:31:24;10.34;47.44
71396;DHT22;59888;55.814;37.132;2022-09-09T18:33:52;10.28;47.43
71396;DHT22;59888;55.814;37.132;2022-09-09T18:36:21;10.21;47.56
71396;DHT22;59888;55.814;37.132;2022-09-09T18:38:47;10.15;47.70
71396;DHT22;59888;55.814;37.132;2022-09-09T18:41:14;10.12;47.72
71396;DHT22;59888;55.814;37.132;2022-09-09T18:43:41;10.07;47.89
71396;DHT22;59888;55.814;37.132;2022-09-09T18:46:08;10.04;47.79
71396;DHT22;59888;55.814;37.132;2022-09-09T18:48:34;9.94;48.03
71396;DHT22;59888;55.814;37.132;2022-09-09T18:51:05;9.94;48.15
71396;DHT22;59888;55.814;37.132;2022-09-09T18:53:31;9.89;48.14
71396;DHT22;59888;55.814;37.132;2022-09-09T18:56:03;9.80;48.21
71396;DHT22;59888;55.814;37.132;2022-09-09T18:58:29;9.78;48.25
71396;DHT22;59888;55.814;37.132;2022-09-09T19:00:56;9.81;48.11
71396;DHT22;59888;55.814;37.132;2022-09-09T19:03:23;9.75;48.16
71396;DHT22;59888;55.814;37.132;2022-09-09T19:05:50;9.69;48.00
71396;DHT22;59888;55.814;37.132;2022-09-09T19:08:17;9.52;49.22
71396;DHT22;59888;55.814;37.132;2022-09-09T19:10:45;9.38;48.94
71396;DHT22;59888;55.814;37.132;2022-09-09T19:13:13;9.29;49.53
71396;DHT22;59888;55.814;37.132;2022-09-09T19:15:39;9.17;49.49
71396;DHT22;59888;55.814;37.132;2022-09-09T19:18:05;9.17;49.21
71396;DHT22;59888;55.814;37.132;2022-09-09T19:20:31;9.15;49.34
71396;DHT22;59888;55.814;37.132;2022-09-09T19:22:57;9.14;49.34
71396;DHT22;59888;55.814;37.132;2022-09-09T19:25:24;9.14;49.28
71396;DHT22;59888;55.814;37.132;2022-09-09T19:27:50;9.15;49.20
71396;DHT22;59888;55.814;37.132;2022-09-09T19:30:16;9.18;49.22
71396;DHT22;59888;55.814;37.132;2022-09-09T19:32:42;9.22;49.18
71396;DHT22;59888;55.814;37.132;2022-09-09T19:35:09;9.20;49.12
71396;DHT22;59888;55.814;37.132;2022-09-09T19:37:35;9.19;49.08
71396;DHT22;59888;55.814;37.132;2022-09-09T19:40:02;9.19;49.05
71396;DHT22;59888;55.814;37.132;2022-09-09T19:42:31;9.06;49.30
71396;DHT22;59888;55.814;37.132;2022-09-09T19:44:57;8.98;49.50
71396;DHT22;59888;55.814;37.132;2022-09-09T19:47:22;8.96;49.51
71396;DHT22;59888;55.814;37.132;2022-09-09T19:49:49;8.93;49.61
71396;DHT22;59888;55.814;37.132;2022-09-09T19:52:17;8.89;49.69
71396;DHT22;59888;55.814;37.132;2022-09-09T19:54:44;8.88;49.63
71396;DHT22;59888;55.814;37.132;2022-09-09T19:57:11;8.85;49.58
71396;DHT22;59888;55.814;37.132;2022-09-09T19:59:37;8.79;49.77
71396;DHT22;59888;55.814;37.132;2022-09-09T20:02:03;8.81;49.87
71396;DHT22;59888;55.814;37.132;2022-09-09T20:04:28;8.79;49.98
71396;DHT22;59888;55.814;37.132;2022-09-09T20:06:54;8.76;50.05
71396;DHT22;59888;55.814;37.132;2022-09-09T20:09:21;8.81;50.16
71396;DHT22;59888;55.814;37.132;2022-09-09T20:11:52;8.75;50.42
71396;DHT22;59888;55.814;37.132;2022-09-09T20:14:17;8.72;50.09
71396;DHT22;59888;55.814;37.132;2022-09-09T20:16:44;8.66;50.02
71396;DHT22;59888;55.814;37.132;2022-09-09T20:19:12;8.71;50.17
71396;DHT22;59888;55.814;37.132;2022-09-09T20:21:40;8.74;50.08
71396;DHT22;59888;55.814;37.132;2022-09-09T20:24:11;8.70;50.18
71396;DHT22;59888;55.814;37.132;2022-09-09T20:26:37;8.71;50.16
71396;DHT22;59888;55.814;37.132;2022-09-09T20:29:06;8.67;50.20
71396;DHT22;59888;55.814;37.132;2022-09-09T20:31:34;8.63;50.29
71396;DHT22;59888;55.814;37.132;2022-09-09T20:34:06;8.63;50.39
71396;DHT22;59888;55.814;37.132;2022-09-09T20:36:35;8.59;50.45
71396;DHT22;59888;55.814;37.132;2022-09-09T20:39:04;8.51;50.59
71396;DHT22;59888;55.814;37.132;2022-09-09T20:41:33;8.42;50.58
71396;DHT22;59888;55.814;37.132;2022-09-09T20:44:08;8.32;51.20
71396;DHT22;59888;55.814;37.132;2022-09-09T20:46:42;8.21;51.38
71396;DHT22;59888;55.814;37.132;2022-09-09T20:49:10;8.22;51.16
71396;DHT22;59888;55.814;37.132;2022-09-09T20:51:36;8.16;51.35
71396;DHT22;59888;55.814;37.132;2022-09-09T20:54:05;8.16;51.43
71396;DHT22;59888;55.814;37.132;2022-09-09T20:56:36;8.18;51.62
71396;DHT22;59888;55.814;37.132;2022-09-09T20:59:04;8.20;51.24
71396;DHT22;59888;55.814;37.132;2022-09-09T21:01:30;8.16;51.31
71396;DHT22;59888;55.814;37.132;2022-09-09T21:03:56;8.09;51.35
71396;DHT22;59888;55.814;37.132;2022-09-09T21:06:23;8.07;51.42
71396;DHT22;59888;55.814;37.132;2022-09-09T21:08:49;8.06;51.33
71396;DHT22;59888;55.814;37.132;2022-09-09T21:11:15;8.00;51.51
71396;DHT22;59888;55.814;37.132;2022-09-09T21:13:42;7.93;51.63
71396;DHT22;59888;55.814;37.132;2022-09-09T21:16:12;7.96;51.70
71396;DHT22;59888;55.814;37.132;2022-09-09T21:18:38;8.01;51.38
71396;DHT22;59888;55.814;37.132;2022-09-09T21:21:05;7.96;51.53
71396;DHT22;59888;55.814;37.132;2022-09-09T21:23:32;7.92;51.66
71396;DHT22;59888;55.814;37.132;2022-09-09T21:25:58;7.92;51.55
71396;DHT22;59888;55.814;37.132;2022-09-09T21:28:24;7.89;51.51
71396;DHT22;59888;55.814;37.132;2022-09-09T21:30:51;7.87;51.56
71396;DHT22;59888;55.814;37.132;2022-09-09T21:33:19;7.83;51.52
71396;DHT22;59888;55.814;37.132;2022-09-09T21:35:45;7.87;51.43
71396;DHT22;59888;55.814;37.132;2022-09-09T21:38:22;7.86;51.82
71396;DHT22;59888;55.814;37.132;2022-09-09T21:40:49;7.76;51.42
71396;DHT22;59888;55.814;37.132;2022-09-09T21:43:16;7.75;51.49
71396;DHT22;59888;55.814;37.132;2022-09-09T21:45:42;7.69;51.56
71396;DHT22;59888;55.814;37.132;2022-09-09T21:48:11;7.63;51.69
71396;DHT22;59888;55.814;37.132;2022-09-09T21:50:39;7.59;51.76
71396;DHT22;59888;55.814;37.132;2022-09-09T21:53:05;7.58;51.75
71396;DHT22;59888;55.814;37.132;2022-09-09T21:55:35;7.54;51.91
71396;DHT22;59888;55.814;37.132;2022-09-09T21:58:02;7.50;51.85
71396;DHT22;59888;55.814;37.132;2022-09-09T22:00:28;7.50;51.85
71396;DHT22;59888;55.814;37.132;2022-09-09T22:02:54;7.48;51.86
71396;DHT22;59888;55.814;37.132;2022-09-09T22:05:20;7.46;51.91
71396;DHT22;59888;55.814;37.132;2022-09-09T22:07:45;7.41;51.95
71396;DHT22;59888;55.814;37.132;2022-09-09T22:10:11;7.37;52.04
71396;DHT22;59888;55.814;37.132;2022-09-09T22:12:37;7.38;52.11
71396;DHT22;59888;55.814;37.132;2022-09-09T22:15:04;7.37;52.11
71396;DHT22;59888;55.814;37.132;2022-09-09T22:17:33;7.37;52.19
71396;DHT22;59888;55.814;37.132;2022-09-09T22:19:59;7.34;52.11
71396;DHT22;59888;55.814;37.132;2022-09-09T22:22:25;7.33;52.04
71396;DHT22;59888;55.814;37.132;2022-09-09T22:24:51;7.26;52.09
71396;DHT22;59888;55.814;37.132;2022-09-09T22:27:17;7.25;52.13
71396;DHT22;59888;55.814;37.132;2022-09-09T22:29:43;7.24;52.16
71396;DHT22;59888;55.814;37.132;2022-09-09T22:32:09;7.28;52.07
71396;DHT22;59888;55.814;37.132;2022-09-09T22:34:38;7.24;52.19
71396;DHT22;59888;55.814;37.132;2022-09-09T22:37:04;7.26;52.13
71396;DHT22;59888;55.814;37.132;2022-09-09T22:39:31;7.28;51.95
71396;DHT22;59888;55.814;37.132;2022-09-09T22:41:57;7.24;51.91
71396;DHT22;59888;55.814;37.132;2022-09-09T22:44:24;7.16;51.95
71396;DHT22;59888;55.814;37.132;2022-09-09T22:46:54;7.11;51.98
71396;DHT22;59888;55.814;37.132;2022-09-09T22:49:23;7.02;52.20
71396;DHT22;59888;55.814;37.132;2022-09-09T22:51:49;7.02;52.07
71396;DHT22;59888;55.814;37.132;2022-09-09T22:54:15;7.00;52.12
71396;DHT22;59888;55.814;37.132;2022-09-09T22:56:50;6.96;52.37
71396;DHT22;59888;55.814;37.132;2022-09-09T22:59:17;7.00;52.16
71396;DHT22;59888;55.814;37.132;2022-09-09T23:01:43;7.00;52.00
71396;DHT22;59888;55.814;37.132;2022-09-09T23:04:09;6.89;52.25
71396;DHT22;59888;55.814;37.132;2022-09-09T23:06:36;6.89;52.31
71396;DHT22;59888;55.814;37.132;2022-09-09T23:09:05;6.88;52.21
71396;DHT22;59888;55.814;37.132;2022-09-09T23:11:33;6.81;52.43
71396;DHT22;59888;55.814;37.132;2022-09-09T23:14:01;6.87;52.44
71396;DHT22;59888;55.814;37.132;2022-09-09T23:16:35;6.87;52.36
71396;DHT22;59888;55.814;37.132;2022-09-09T23:19:13;6.80;52.55
71396;DHT22;59888;55.814;37.132;2022-09-09T23:21:42;6.78;52.43
71396;DHT22;59888;55.814;37.132;2022-09-09T23:24:12;6.69;52.69
71396;DHT22;59888;55.814;37.132;2022-09-09T23:26:39;6.63;52.76
71396;DHT22;59888;55.814;37.132;2022-09-09T23:29:05;6.64;52.87
71396;DHT22;59888;55.814;37.132;2022-09-09T23:31:33;6.63;52.85
71396;DHT22;59888;55.814;37.132;2022-09-09T23:34:02;6.59;52.78
71396;DHT22;59888;55.814;37.132;2022-09-09T23:36:28;6.53;53.02
71396;DHT22;59888;55.814;37.132;2022-09-09T23:38:59;6.52;52.92
71396;DHT22;59888;55.814;37.132;2022-09-09T23:41:25;6.45;53.30
71396;DHT22;59888;55.814;37.132;2022-09-09T23:43:52;6.43;53.33
71396;DHT22;59888;55.814;37.132;2022-09-09T23:46:21;6.46;53.32
71396;DHT22;59888;55.814;37.132;2022-09-09T23:48:48;6.42;54.91
71396;DHT22;59888;55.814;37.132;2022-09-09T23:51:19;6.25;54.68
71396;DHT22;59888;55.814;37.132;2022-09-09T23:53:48;6.19;54.71
71396;DHT22;59888;55.814;37.132;2022-09-09T23:56:42;6.17;54.79
71396;DHT22;59888;55.814;37.132;2022-09-09T23:59:08;6.22;54.32
